sensor_id;sensor_type;location;lat;lon;timestamp;temperature;humidity
52879;DHT22;38747;53.140;6.498;2022-12-18T00:01:37;-3.50;99.90
52879;DHT22;38747;53.140;6.498;2022-12-18T00:04:05;-3.50;99.90
52879;DHT22;38747;53.140;6.498;2022-12-18T00:06:32;-3.50;99.90
52879;DHT22;38747;53.140;6.498;2022-12-18T00:08:59;-3.50;99.90
52879;DHT22;38747;53.140;6.498;2022-12-18T00:11:27;-3.50;99.90
52879;DHT22;38747;53.140;6.498;2022-12-18T00:13:55;-3.50;99.90
52879;DHT22;38747;53.140;6.498;2022-12-18T00:16:22;-3.50;99.90
52879;DHT22;38747;53.140;6.498;2022-12-18T00:18:53;-3.50;99.90
52879;DHT22;38747;53.140;6.498;2022-12-18T00:21:20;-3.50;99.90
52879;DHT22;38747;53.140;6.498;2022-12-18T00:23:47;-3.60;99.90
52879;DHT22;38747;53.140;6.498;2022-12-18T00:26:19;-3.60;99.90
52879;DHT22;38747;53.140;6.498;2022-12-18T00:28:45;-3.60;99.90
52879;DHT22;38747;53.140;6.498;2022-12-18T00:31:17;-3.60;99.90
52879;DHT22;38747;53.140;6.498;2022-12-18T00:33:43;-3.60;99.90
52879;DHT22;38747;53.140;6.498;2022-12-18T00:36:13;-3.60;99.90
52879;DHT22;38747;53.140;6.498;2022-12-18T00:38:39;-3.60;99.90
52879;DHT22;38747;53.140;6.498;2022-12-18T00:41:06;-3.60;99.90
52879;DHT22;38747;53.140;6.498;2022-12-18T00:43:31;-3.70;99.90
52879;DHT22;38747;53.140;6.498;2022-12-18T00:45:57;-3.70;99.90
52879;DHT22;38747;53.140;6.498;2022-12-18T00:48:23;-3.70;99.90
52879;DHT22;38747;53.140;6.498;2022-12-18T00:50:49;-3.70;99.90
52879;DHT22;38747;53.140;6.498;2022-12-18T00:53:15;-3.70;99.90
52879;DHT22;38747;53.140;6.498;2022-12-18T00:55:41;-3.80;99.90
52879;DHT22;38747;53.140;6.498;2022-12-18T00:58:08;-3.80;99.90
52879;DHT22;38747;53.140;6.498;2022-12-18T01:00:35;-3.80;99.90
52879;DHT22;38747;53.140;6.498;2022-12-18T01:03:00;-3.80;99.90
52879;DHT22;38747;53.140;6.498;2022-12-18T01:05:27;-3.80;99.90
52879;DHT22;38747;53.140;6.498;2022-12-18T01:07:52;-3.90;99.90
52879;DHT22;38747;53.140;6.498;2022-12-18T01:10:18;-3.90;99.90
52879;DHT22;38747;53.140;6.498;2022-12-18T01:12:44;-3.90;99.90
52879;DHT22;38747;53.140;6.498;2022-12-18T01:15:12;-3.90;99.90
52879;DHT22;38747;53.140;6.498;2022-12-18T01:17:38;-3.90;99.90
52879;DHT22;38747;53.140;6.498;2022-12-18T01:20:04;-3.90;99.90
52879;DHT22;38747;53.140;6.498;2022-12-18T01:22:30;-3.90;99.90
52879;DHT22;38747;53.140;6.498;2022-12-18T01:24:56;-4.00;99.90
52879;DHT22;38747;53.140;6.498;2022-12-18T01:27:21;-4.00;99.90
52879;DHT22;38747;53.140;6.498;2022-12-18T01:29:47;-4.10;99.90
52879;DHT22;38747;53.140;6.498;2022-12-18T01:32:12;-4.10;99.90
52879;DHT22;38747;53.140;6.498;2022-12-18T01:34:38;-4.20;99.90
52879;DHT22;38747;53.140;6.498;2022-12-18T01:37:05;-4.20;99.90
52879;DHT22;38747;53.140;6.498;2022-12-18T01:39:31;-4.20;99.90
52879;DHT22;38747;53.140;6.498;2022-12-18T01:41:58;-4.20;99.90
52879;DHT22;38747;53.140;6.498;2022-12-18T01:47:45;-4.30;99.90
52879;DHT22;38747;53.140;6.498;2022-12-18T01:50:15;-4.40;99.90
52879;DHT22;38747;53.140;6.498;2022-12-18T01:52:43;-4.40;99.90
52879;DHT22;38747;53.140;6.498;2022-12-18T01:55:11;-4.40;99.90
52879;DHT22;38747;53.140;6.498;2022-12-18T01:57:38;-4.40;99.90
52879;DHT22;38747;53.140;6.498;2022-12-18T02:00:12;-4.50;99.90
52879;DHT22;38747;53.140;6.498;2022-12-18T02:02:39;-4.50;99.90
52879;DHT22;38747;53.140;6.498;2022-12-18T02:05:05;-4.60;99.90
52879;DHT22;38747;53.140;6.498;2022-12-18T02:10:30;-4.70;99.90
52879;DHT22;38747;53.140;6.498;2022-12-18T02:13:09;-4.70;99.90
52879;DHT22;38747;53.140;6.498;2022-12-18T02:18:36;-4.70;99.90
52879;DHT22;38747;53.140;6.498;2022-12-18T02:26:57;-4.80;99.90
52879;DHT22;38747;53.140;6.498;2022-12-18T02:29:31;-4.80;99.90
52879;DHT22;38747;53.140;6.498;2022-12-18T02:31:58;-4.80;99.90
52879;DHT22;38747;53.140;6.498;2022-12-18T02:34:28;-4.90;99.90
52879;DHT22;38747;53.140;6.498;2022-12-18T02:36:55;-4.90;99.90
52879;DHT22;38747;53.140;6.498;2022-12-18T02:39:23;-4.90;99.90
52879;DHT22;38747;53.140;6.498;2022-12-18T02:41:50;-4.90;99.90
52879;DHT22;38747;53.140;6.498;2022-12-18T02:44:16;-4.90;99.90
52879;DHT22;38747;53.140;6.498;2022-12-18T02:46:48;-4.90;99.90
52879;DHT22;38747;53.140;6.498;2022-12-18T02:49:35;-4.90;99.90
52879;DHT22;38747;53.140;6.498;2022-12-18T02:57:20;-4.90;99.90
52879;DHT22;38747;53.140;6.498;2022-12-18T03:00:20;-4.90;99.90
52879;DHT22;38747;53.140;6.498;2022-12-18T03:03:24;-4.90;99.90
52879;DHT22;38747;53.140;6.498;2022-12-18T03:08:56;-4.90;99.90
52879;DHT22;38747;53.140;6.498;2022-12-18T03:11:24;-4.90;99.90
52879;DHT22;38747;53.140;6.498;2022-12-18T03:14:11;-4.90;99.90
52879;DHT22;38747;53.140;6.498;2022-12-18T03:16:40;-5.00;99.90
52879;DHT22;38747;53.140;6.498;2022-12-18T03:19:10;-5.00;99.90
52879;DHT22;38747;53.140;6.498;2022-12-18T03:21:50;-5.00;99.90
52879;DHT22;38747;53.140;6.498;2022-12-18T03:24:17;-5.00;99.90
52879;DHT22;38747;53.140;6.498;2022-12-18T03:26:47;-5.00;99.90
52879;DHT22;38747;53.140;6.498;2022-12-18T03:31:55;-5.10;99.90
52879;DHT22;38747;53.140;6.498;2022-12-18T03:34:33;-5.20;99.90
52879;DHT22;38747;53.140;6.498;2022-12-18T03:37:02;-5.20;99.90
52879;DHT22;38747;53.140;6.498;2022-12-18T03:39:28;-5.20;99.90
52879;DHT22;38747;53.140;6.498;2022-12-18T03:47:46;-5.30;99.90
52879;DHT22;38747;53.140;6.498;2022-12-18T03:50:26;-5.30;99.90
52879;DHT22;38747;53.140;6.498;2022-12-18T03:53:47;-5.40;99.90
52879;DHT22;38747;53.140;6.498;2022-12-18T03:55:51;-5.40;99.90
52879;DHT22;38747;53.140;6.498;2022-12-18T03:58:24;-5.40;99.90
52879;DHT22;38747;53.140;6.498;2022-12-18T04:00:52;-5.40;99.90
52879;DHT22;38747;53.140;6.498;2022-12-18T04:03:20;-5.40;99.90
52879;DHT22;38747;53.140;6.498;2022-12-18T04:05:48;-5.40;99.90
52879;DHT22;38747;53.140;6.498;2022-12-18T04:08:16;-5.50;99.90
52879;DHT22;38747;53.140;6.498;2022-12-18T04:10:41;-5.50;99.90
52879;DHT22;38747;53.140;6.498;2022-12-18T04:13:08;-5.50;99.90
52879;DHT22;38747;53.140;6.498;2022-12-18T04:15:35;-5.50;99.90
52879;DHT22;38747;53.140;6.498;2022-12-18T04:18:02;-5.50;99.90
52879;DHT22;38747;53.140;6.498;2022-12-18T04:20:28;-5.60;99.90
52879;DHT22;38747;53.140;6.498;2022-12-18T04:22:53;-5.60;99.90
52879;DHT22;38747;53.140;6.498;2022-12-18T04:25:19;-5.60;99.90
52879;DHT22;38747;53.140;6.498;2022-12-18T04:27:45;-5.60;99.90
52879;DHT22;38747;53.140;6.498;2022-12-18T04:30:11;-5.60;99.90
52879;DHT22;38747;53.140;6.498;2022-12-18T04:32:36;-5.60;99.90
52879;DHT22;38747;53.140;6.498;2022-12-18T04:35:02;-5.60;99.90
52879;DHT22;38747;53.140;6.498;2022-12-18T04:37:29;-5.60;99.90
52879;DHT22;38747;53.140;6.498;2022-12-18T04:39:55;-5.60;99.90
52879;DHT22;38747;53.140;6.498;2022-12-18T04:42:21;-5.60;99.90
52879;DHT22;38747;53.140;6.498;2022-12-18T04:44:46;-5.70;99.90
52879;DHT22;38747;53.140;6.498;2022-12-18T04:47:12;-5.70;99.90
52879;DHT22;38747;53.140;6.498;2022-12-18T04:49:37;-5.70;99.90
52879;DHT22;38747;53.140;6.498;2022-12-18T04:52:03;-5.70;99.90
52879;DHT22;38747;53.140;6.498;2022-12-18T04:54:29;-5.70;99.90
52879;DHT22;38747;53.140;6.498;2022-12-18T04:56:54;-5.80;99.90
52879;DHT22;38747;53.140;6.498;2022-12-18T04:59:20;-5.80;99.90
52879;DHT22;38747;53.140;6.498;2022-12-18T05:01:46;-5.80;99.90
52879;DHT22;38747;53.140;6.498;2022-12-18T05:04:11;-5.80;99.90
52879;DHT22;38747;53.140;6.498;2022-12-18T05:06:37;-5.80;99.90
52879;DHT22;38747;53.140;6.498;2022-12-18T05:09:03;-5.90;99.90
52879;DHT22;38747;53.140;6.498;2022-12-18T05:11:28;-5.90;99.90
52879;DHT22;38747;53.140;6.498;2022-12-18T05:13:55;-5.90;99.90
52879;DHT22;38747;53.140;6.498;2022-12-18T05:16:21;-5.90;99.90
52879;DHT22;38747;53.140;6.498;2022-12-18T05:18:46;-5.90;99.90
52879;DHT22;38747;53.140;6.498;2022-12-18T05:21:12;-5.90;99.90
52879;DHT22;38747;53.140;6.498;2022-12-18T05:23:38;-5.90;99.90
52879;DHT22;38747;53.140;6.498;2022-12-18T05:26:05;-5.90;99.90
52879;DHT22;38747;53.140;6.498;2022-12-18T05:28:32;-6.00;99.90
52879;DHT22;38747;53.140;6.498;2022-12-18T05:31:01;-6.00;99.90
52879;DHT22;38747;53.140;6.498;2022-12-18T05:33:30;-6.00;99.90
52879;DHT22;38747;53.140;6.498;2022-12-18T05:35:57;-6.00;99.90
52879;DHT22;38747;53.140;6.498;2022-12-18T05:38:25;-6.00;99.90
52879;DHT22;38747;53.140;6.498;2022-12-18T05:40:51;-6.00;99.90
52879;DHT22;38747;53.140;6.498;2022-12-18T05:43:20;-6.00;99.90
52879;DHT22;38747;53.140;6.498;2022-12-18T05:45:50;-6.10;99.90
52879;DHT22;38747;53.140;6.498;2022-12-18T05:48:16;-6.10;99.90
52879;DHT22;38747;53.140;6.498;2022-12-18T05:50:44;-6.10;99.90
52879;DHT22;38747;53.140;6.498;2022-12-18T05:53:15;-6.10;99.90
52879;DHT22;38747;53.140;6.498;2022-12-18T05:55:42;-6.10;99.90
52879;DHT22;38747;53.140;6.498;2022-12-18T05:58:10;-6.10;99.90
52879;DHT22;38747;53.140;6.498;2022-12-18T06:00:37;-6.10;99.90
52879;DHT22;38747;53.140;6.498;2022-12-18T06:03:07;-6.10;99.90
52879;DHT22;38747;53.140;6.498;2022-12-18T06:05:38;-6.10;99.90
52879;DHT22;38747;53.140;6.498;2022-12-18T06:08:04;-6.20;99.90
52879;DHT22;38747;53.140;6.498;2022-12-18T06:10:30;-6.20;99.90
52879;DHT22;38747;53.140;6.498;2022-12-18T06:12:56;-6.20;99.90
52879;DHT22;38747;53.140;6.498;2022-12-18T06:15:22;-6.20;99.90
52879;DHT22;38747;53.140;6.498;2022-12-18T06:17:47;-6.20;99.90
52879;DHT22;38747;53.140;6.498;2022-12-18T06:20:13;-6.20;99.90
52879;DHT22;38747;53.140;6.498;2022-12-18T06:22:39;-6.20;99.90
52879;DHT22;38747;53.140;6.498;2022-12-18T06:25:05;-6.20;99.90
52879;DHT22;38747;53.140;6.498;2022-12-18T06:27:31;-6.20;99.90
52879;DHT22;38747;53.140;6.498;2022-12-18T06:29:59;-6.20;99.90
52879;DHT22;38747;53.140;6.498;2022-12-18T06:32:25;-6.20;99.90
52879;DHT22;38747;53.140;6.498;2022-12-18T06:34:51;-6.20;99.90
52879;DHT22;38747;53.140;6.498;2022-12-18T06:37:16;-6.20;99.90
52879;DHT22;38747;53.140;6.498;2022-12-18T06:39:42;-6.20;99.90
52879;DHT22;38747;53.140;6.498;2022-12-18T06:42:08;-6.30;99.90
52879;DHT22;38747;53.140;6.498;2022-12-18T06:44:33;-6.30;99.90
52879;DHT22;38747;53.140;6.498;2022-12-18T06:46:59;-6.30;99.90
52879;DHT22;38747;53.140;6.498;2022-12-18T06:49:24;-6.30;99.90
52879;DHT22;38747;53.140;6.498;2022-12-18T06:51:50;-6.30;99.90
52879;DHT22;38747;53.140;6.498;2022-12-18T06:54:17;-6.40;99.90
52879;DHT22;38747;53.140;6.498;2022-12-18T06:56:45;-6.40;99.90
52879;DHT22;38747;53.140;6.498;2022-12-18T06:59:12;-6.40;99.90
52879;DHT22;38747;53.140;6.498;2022-12-18T07:01:37;-6.40;99.90
52879;DHT22;38747;53.140;6.498;2022-12-18T07:04:03;-6.40;99.90
52879;DHT22;38747;53.140;6.498;2022-12-18T07:06:28;-6.40;99.90
52879;DHT22;38747;53.140;6.498;2022-12-18T07:08:54;-6.40;99.90
52879;DHT22;38747;53.140;6.498;2022-12-18T07:11:20;-6.30;99.90
52879;DHT22;38747;53.140;6.498;2022-12-18T07:13:46;-6.40;99.90
52879;DHT22;38747;53.140;6.498;2022-12-18T07:16:17;-6.30;99.90
52879;DHT22;38747;53.140;6.498;2022-12-18T07:18:44;-6.30;99.90
52879;DHT22;38747;53.140;6.498;2022-12-18T07:21:12;-6.30;99.90
52879;DHT22;38747;53.140;6.498;2022-12-18T07:23:39;-6.30;99.90
52879;DHT22;38747;53.140;6.498;2022-12-18T07:26:07;-6.30;99.90
52879;DHT22;38747;53.140;6.498;2022-12-18T07:28:35;-6.30;99.90
52879;DHT22;38747;53.140;6.498;2022-12-18T07:31:05;-6.30;99.90
52879;DHT22;38747;53.140;6.498;2022-12-18T07:33:33;-6.30;99.90
52879;DHT22;38747;53.140;6.498;2022-12-18T07:36:06;-6.20;99.90
52879;DHT22;38747;53.140;6.498;2022-12-18T07:38:34;-6.30;99.90
52879;DHT22;38747;53.140;6.498;2022-12-18T07:41:01;-6.30;99.90
52879;DHT22;38747;53.140;6.498;2022-12-18T07:43:27;-6.20;99.90
52879;DHT22;38747;53.140;6.498;2022-12-18T07:45:52;-6.20;99.90
52879;DHT22;38747;53.140;6.498;2022-12-18T07:48:18;-6.20;99.90
52879;DHT22;38747;53.140;6.498;2022-12-18T07:50:44;-6.20;99.90
52879;DHT22;38747;53.140;6.498;2022-12-18T07:53:09;-6.20;99.90
52879;DHT22;38747;53.140;6.498;2022-12-18T07:55:35;-6.20;99.90
52879;DHT22;38747;53.140;6.498;2022-12-18T07:58:04;-6.20;99.90
52879;DHT22;38747;53.140;6.498;2022-12-18T08:00:30;-6.20;99.90
52879;DHT22;38747;53.140;6.498;2022-12-18T08:02:57;-6.20;99.90
52879;DHT22;38747;53.140;6.498;2022-12-18T08:05:23;-6.20;99.90
52879;DHT22;38747;53.140;6.498;2022-12-18T08:07:49;-6.10;99.90
52879;DHT22;38747;53.140;6.498;2022-12-18T08:10:14;-6.10;99.90
52879;DHT22;38747;53.140;6.498;2022-12-18T08:12:40;-6.10;99.90
52879;DHT22;38747;53.140;6.498;2022-12-18T08:15:06;-6.00;99.90
52879;DHT22;38747;53.140;6.498;2022-12-18T08:17:32;-6.00;99.90
52879;DHT22;38747;53.140;6.498;2022-12-18T08:19:58;-5.90;99.90
52879;DHT22;38747;53.140;6.498;2022-12-18T08:22:23;-5.90;99.90
52879;DHT22;38747;53.140;6.498;2022-12-18T08:24:49;-5.90;99.90
52879;DHT22;38747;53.140;6.498;2022-12-18T08:27:15;-5.90;99.90
52879;DHT22;38747;53.140;6.498;2022-12-18T08:29:40;-5.80;99.90
52879;DHT22;38747;53.140;6.498;2022-12-18T08:32:06;-5.80;99.90
52879;DHT22;38747;53.140;6.498;2022-12-18T08:34:31;-5.80;99.90
52879;DHT22;38747;53.140;6.498;2022-12-18T08:36:57;-5.80;99.90
52879;DHT22;38747;53.140;6.498;2022-12-18T08:39:23;-5.80;99.90
52879;DHT22;38747;53.140;6.498;2022-12-18T08:41:49;-5.70;99.90
52879;DHT22;38747;53.140;6.498;2022-12-18T08:44:34;-5.70;99.90
52879;DHT22;38747;53.140;6.498;2022-12-18T08:47:03;-5.70;99.90
52879;DHT22;38747;53.140;6.498;2022-12-18T08:49:29;-5.60;99.90
52879;DHT22;38747;53.140;6.498;2022-12-18T08:51:55;-5.60;99.90
52879;DHT22;38747;53.140;6.498;2022-12-18T08:54:23;-5.60;99.90
52879;DHT22;38747;53.140;6.498;2022-12-18T08:56:48;-5.60;99.90
52879;DHT22;38747;53.140;6.498;2022-12-18T08:59:16;-5.50;99.90
52879;DHT22;38747;53.140;6.498;2022-12-18T09:01:42;-5.50;99.90
52879;DHT22;38747;53.140;6.498;2022-12-18T09:04:11;-5.40;99.90
52879;DHT22;38747;53.140;6.498;2022-12-18T09:06:37;-5.40;99.90
52879;DHT22;38747;53.140;6.498;2022-12-18T09:09:04;-5.30;99.90
52879;DHT22;38747;53.140;6.498;2022-12-18T09:11:30;-5.30;99.90
52879;DHT22;38747;53.140;6.498;2022-12-18T09:13:57;-5.30;99.90
52879;DHT22;38747;53.140;6.498;2022-12-18T09:16:24;-5.20;99.90
52879;DHT22;38747;53.140;6.498;2022-12-18T09:18:50;-5.10;99.90
52879;DHT22;38747;53.140;6.498;2022-12-18T09:21:19;-5.10;99.90
52879;DHT22;38747;53.140;6.498;2022-12-18T09:23:53;-5.00;99.90
52879;DHT22;38747;53.140;6.498;2022-12-18T09:26:20;-4.90;99.90
52879;DHT22;38747;53.140;6.498;2022-12-18T09:28:46;-4.90;99.90
52879;DHT22;38747;53.140;6.498;2022-12-18T09:31:12;-4.90;99.90
52879;DHT22;38747;53.140;6.498;2022-12-18T09:33:38;-4.80;99.90
52879;DHT22;38747;53.140;6.498;2022-12-18T09:36:06;-4.80;99.90
52879;DHT22;38747;53.140;6.498;2022-12-18T09:38:32;-4.70;99.90
52879;DHT22;38747;53.140;6.498;2022-12-18T09:41:03;-4.60;99.90
52879;DHT22;38747;53.140;6.498;2022-12-18T09:43:51;-4.60;99.90
52879;DHT22;38747;53.140;6.498;2022-12-18T09:46:29;-4.50;99.90
52879;DHT22;38747;53.140;6.498;2022-12-18T09:48:59;-4.40;99.90
52879;DHT22;38747;53.140;6.498;2022-12-18T09:51:30;-4.40;99.90
52879;DHT22;38747;53.140;6.498;2022-12-18T09:54:10;-4.30;99.90
52879;DHT22;38747;53.140;6.498;2022-12-18T09:56:41;-4.30;99.90
52879;DHT22;38747;53.140;6.498;2022-12-18T09:59:23;-4.20;99.90
52879;DHT22;38747;53.140;6.498;2022-12-18T10:01:49;-4.20;99.90
52879;DHT22;38747;53.140;6.498;2022-12-18T10:04:15;-4.20;99.90
52879;DHT22;38747;53.140;6.498;2022-12-18T10:09:36;-4.20;99.90
52879;DHT22;38747;53.140;6.498;2022-12-18T10:17:49;-4.20;99.90
52879;DHT22;38747;53.140;6.498;2022-12-18T10:23:13;-4.10;99.90
52879;DHT22;38747;53.140;6.498;2022-12-18T10:25:53;-4.00;99.90
52879;DHT22;38747;53.140;6.498;2022-12-18T10:28:20;-4.00;99.90
52879;DHT22;38747;53.140;6.498;2022-12-18T10:30:46;-3.90;99.90
52879;DHT22;38747;53.140;6.498;2022-12-18T10:33:14;-3.90;99.90
52879;DHT22;38747;53.140;6.498;2022-12-18T10:35:42;-3.90;99.90
52879;DHT22;38747;53.140;6.498;2022-12-18T10:43:24;-3.90;99.90
52879;DHT22;38747;53.140;6.498;2022-12-18T10:51:02;-3.90;99.90
52879;DHT22;38747;53.140;6.498;2022-12-18T10:53:31;-3.90;99.90
52879;DHT22;38747;53.140;6.498;2022-12-18T10:55:58;-3.90;99.90
52879;DHT22;38747;53.140;6.498;2022-12-18T10:58:31;-3.90;99.90
52879;DHT22;38747;53.140;6.498;2022-12-18T11:01:15;-3.80;99.90
52879;DHT22;38747;53.140;6.498;2022-12-18T11:03:46;-3.80;99.90
52879;DHT22;38747;53.140;6.498;2022-12-18T11:08:38;-3.70;99.90
52879;DHT22;38747;53.140;6.498;2022-12-18T11:11:21;-3.60;99.90
52879;DHT22;38747;53.140;6.498;2022-12-18T11:16:20;-3.50;99.90
52879;DHT22;38747;53.140;6.498;2022-12-18T11:18:45;-3.40;99.90
52879;DHT22;38747;53.140;6.498;2022-12-18T11:21:12;-3.40;99.90
52879;DHT22;38747;53.140;6.498;2022-12-18T11:23:48;-3.40;99.90
52879;DHT22;38747;53.140;6.498;2022-12-18T11:26:14;-3.30;99.90
52879;DHT22;38747;53.140;6.498;2022-12-18T11:28:49;-3.30;99.90
52879;DHT22;38747;53.140;6.498;2022-12-18T11:33:44;-3.20;99.90
52879;DHT22;38747;53.140;6.498;2022-12-18T11:36:12;-3.10;99.90
52879;DHT22;38747;53.140;6.498;2022-12-18T11:38:40;-3.10;99.90
52879;DHT22;38747;53.140;6.498;2022-12-18T11:41:26;-3.10;99.90
52879;DHT22;38747;53.140;6.498;2022-12-18T11:44:25;-3.00;99.90
52879;DHT22;38747;53.140;6.498;2022-12-18T11:46:57;-3.00;99.90
52879;DHT22;38747;53.140;6.498;2022-12-18T11:49:32;-2.90;99.90
52879;DHT22;38747;53.140;6.498;2022-12-18T11:52:16;-2.90;99.90
52879;DHT22;38747;53.140;6.498;2022-12-18T11:54:43;-2.90;99.90
52879;DHT22;38747;53.140;6.498;2022-12-18T11:57:39;-2.90;99.90
52879;DHT22;38747;53.140;6.498;2022-12-18T12:00:16;-2.80;99.90
52879;DHT22;38747;53.140;6.498;2022-12-18T12:03:02;-2.80;99.90
52879;DHT22;38747;53.140;6.498;2022-12-18T12:08:19;-2.80;99.90
52879;DHT22;38747;53.140;6.498;2022-12-18T12:14:00;-2.70;99.90
52879;DHT22;38747;53.140;6.498;2022-12-18T12:16:46;-2.60;99.90
52879;DHT22;38747;53.140;6.498;2022-12-18T12:21:58;-2.50;99.90
52879;DHT22;38747;53.140;6.498;2022-12-18T12:29:59;-2.40;99.90
52879;DHT22;38747;53.140;6.498;2022-12-18T12:38:08;-2.30;99.90
52879;DHT22;38747;53.140;6.498;2022-12-18T12:40:38;-2.20;99.90
52879;DHT22;38747;53.140;6.498;2022-12-18T12:43:27;-2.20;99.90
52879;DHT22;38747;53.140;6.498;2022-12-18T12:46:00;-2.20;99.90
52879;DHT22;38747;53.140;6.498;2022-12-18T12:51:21;-2.10;99.90
52879;DHT22;38747;53.140;6.498;2022-12-18T12:53:48;-2.10;99.90
52879;DHT22;38747;53.140;6.498;2022-12-18T12:56:17;-2.00;99.90
52879;DHT22;38747;53.140;6.498;2022-12-18T12:58:55;-2.00;99.90
52879;DHT22;38747;53.140;6.498;2022-12-18T13:01:49;-1.90;99.90
52879;DHT22;38747;53.140;6.498;2022-12-18T13:10:54;-1.80;99.90
52879;DHT22;38747;53.140;6.498;2022-12-18T13:12:56;-1.70;99.90
52879;DHT22;38747;53.140;6.498;2022-12-18T13:15:27;-1.70;99.90
52879;DHT22;38747;53.140;6.498;2022-12-18T13:20:50;-1.70;99.90
52879;DHT22;38747;53.140;6.498;2022-12-18T13:23:30;-1.70;99.90
52879;DHT22;38747;53.140;6.498;2022-12-18T13:25:58;-1.70;99.90
52879;DHT22;38747;53.140;6.498;2022-12-18T13:31:02;-1.70;99.90
52879;DHT22;38747;53.140;6.498;2022-12-18T13:38:43;-1.60;99.90
52879;DHT22;38747;53.140;6.498;2022-12-18T13:43:56;-1.70;99.90
52879;DHT22;38747;53.140;6.498;2022-12-18T13:46:46;-1.60;99.90
52879;DHT22;38747;53.140;6.498;2022-12-18T13:51:41;-1.60;99.90
52879;DHT22;38747;53.140;6.498;2022-12-18T13:54:20;-1.60;99.90
52879;DHT22;38747;53.140;6.498;2022-12-18T13:56:48;-1.50;99.90
52879;DHT22;38747;53.140;6.498;2022-12-18T13:59:23;-1.50;99.90
52879;DHT22;38747;53.140;6.498;2022-12-18T14:01:55;-1.50;99.90
52879;DHT22;38747;53.140;6.498;2022-12-18T14:04:25;-1.50;99.90
52879;DHT22;38747;53.140;6.498;2022-12-18T14:07:10;-1.50;99.90
52879;DHT22;38747;53.140;6.498;2022-12-18T14:10:00;-1.50;99.90
52879;DHT22;38747;53.140;6.498;2022-12-18T14:12:33;-1.50;99.90
52879;DHT22;38747;53.140;6.498;2022-12-18T14:15:32;-1.50;99.90
52879;DHT22;38747;53.140;6.498;2022-12-18T14:18:02;-1.60;99.90
52879;DHT22;38747;53.140;6.498;2022-12-18T14:20:34;-1.60;99.90
52879;DHT22;38747;53.140;6.498;2022-12-18T14:23:00;-1.60;99.90
52879;DHT22;38747;53.140;6.498;2022-12-18T14:25:30;-1.60;99.90
52879;DHT22;38747;53.140;6.498;2022-12-18T14:28:12;-1.60;99.90
52879;DHT22;38747;53.140;6.498;2022-12-18T14:30:43;-1.60;99.90
52879;DHT22;38747;53.140;6.498;2022-12-18T14:33:12;-1.60;99.90
52879;DHT22;38747;53.140;6.498;2022-12-18T14:35:51;-1.70;99.90
52879;DHT22;38747;53.140;6.498;2022-12-18T14:38:31;-1.70;99.90
52879;DHT22;38747;53.140;6.498;2022-12-18T14:43:22;-1.70;99.90
52879;DHT22;38747;53.140;6.498;2022-12-18T14:45:48;-1.70;99.90
52879;DHT22;38747;53.140;6.498;2022-12-18T14:48:38;-1.70;99.90
52879;DHT22;38747;53.140;6.498;2022-12-18T14:53:39;-1.70;99.90
52879;DHT22;38747;53.140;6.498;2022-12-18T14:56:20;-1.70;99.90
52879;DHT22;38747;53.140;6.498;2022-12-18T14:58:54;-1.70;99.90
52879;DHT22;38747;53.140;6.498;2022-12-18T15:01:26;-1.70;99.90
52879;DHT22;38747;53.140;6.498;2022-12-18T15:03:53;-1.70;99.90
52879;DHT22;38747;53.140;6.498;2022-12-18T15:06:31;-1.70;99.90
52879;DHT22;38747;53.140;6.498;2022-12-18T15:09:02;-1.70;99.90
52879;DHT22;38747;53.140;6.498;2022-12-18T15:11:34;-1.70;99.90
52879;DHT22;38747;53.140;6.498;2022-12-18T15:14:21;-1.70;99.90
52879;DHT22;38747;53.140;6.498;2022-12-18T15:16:52;-1.80;99.90
52879;DHT22;38747;53.140;6.498;2022-12-18T15:19:20;-1.80;99.90
52879;DHT22;38747;53.140;6.498;2022-12-18T15:21:46;-1.80;99.90
52879;DHT22;38747;53.140;6.498;2022-12-18T15:24:22;-1.80;99.90
52879;DHT22;38747;53.140;6.498;2022-12-18T15:26:49;-1.80;99.90
52879;DHT22;38747;53.140;6.498;2022-12-18T15:29:19;-1.80;99.90
52879;DHT22;38747;53.140;6.498;2022-12-18T15:31:58;-1.80;99.90
52879;DHT22;38747;53.140;6.498;2022-12-18T15:34:24;-1.90;99.90
52879;DHT22;38747;53.140;6.498;2022-12-18T15:36:51;-1.80;99.90
52879;DHT22;38747;53.140;6.498;2022-12-18T15:39:17;-1.90;99.90
52879;DHT22;38747;53.140;6.498;2022-12-18T15:41:43;-1.90;99.90
52879;DHT22;38747;53.140;6.498;2022-12-18T15:44:29;-1.90;99.90
52879;DHT22;38747;53.140;6.498;2022-12-18T15:46:54;-1.90;99.90
52879;DHT22;38747;53.140;6.498;2022-12-18T15:49:20;-1.90;99.90
52879;DHT22;38747;53.140;6.498;2022-12-18T15:51:53;-1.90;99.90
52879;DHT22;38747;53.140;6.498;2022-12-18T15:54:20;-1.90;99.90
52879;DHT22;38747;53.140;6.498;2022-12-18T15:57:07;-1.90;99.90
52879;DHT22;38747;53.140;6.498;2022-12-18T15:59:48;-1.90;99.90
52879;DHT22;38747;53.140;6.498;2022-12-18T16:02:17;-1.90;99.90
52879;DHT22;38747;53.140;6.498;2022-12-18T16:04:43;-1.90;99.90
52879;DHT22;38747;53.140;6.498;2022-12-18T16:07:09;-1.90;99.90
52879;DHT22;38747;53.140;6.498;2022-12-18T16:09:35;-1.90;99.90
52879;DHT22;38747;53.140;6.498;2022-12-18T16:12:01;-1.90;99.90
52879;DHT22;38747;53.140;6.498;2022-12-18T16:14:29;-1.90;99.90
52879;DHT22;38747;53.140;6.498;2022-12-18T16:16:58;-1.90;99.90
52879;DHT22;38747;53.140;6.498;2022-12-18T16:19:25;-2.00;99.90
52879;DHT22;38747;53.140;6.498;2022-12-18T16:21:52;-2.00;99.90
52879;DHT22;38747;53.140;6.498;2022-12-18T16:24:25;-2.00;99.90
52879;DHT22;38747;53.140;6.498;2022-12-18T16:26:52;-2.00;99.90
52879;DHT22;38747;53.140;6.498;2022-12-18T16:29:18;-2.00;99.90
52879;DHT22;38747;53.140;6.498;2022-12-18T16:31:44;-2.00;99.90
52879;DHT22;38747;53.140;6.498;2022-12-18T16:34:18;-2.00;99.90
52879;DHT22;38747;53.140;6.498;2022-12-18T16:36:48;-2.00;99.90
52879;DHT22;38747;53.140;6.498;2022-12-18T16:39:13;-2.00;99.90
52879;DHT22;38747;53.140;6.498;2022-12-18T16:41:39;-2.00;99.90
52879;DHT22;38747;53.140;6.498;2022-12-18T16:44:04;-2.00;99.90
52879;DHT22;38747;53.140;6.498;2022-12-18T16:46:30;-2.00;99.90
52879;DHT22;38747;53.140;6.498;2022-12-18T16:49:00;-1.90;99.90
52879;DHT22;38747;53.140;6.498;2022-12-18T16:51:26;-1.90;99.90
52879;DHT22;38747;53.140;6.498;2022-12-18T16:53:53;-1.90;99.90
52879;DHT22;38747;53.140;6.498;2022-12-18T16:56:23;-1.90;99.90
52879;DHT22;38747;53.140;6.498;2022-12-18T16:58:53;-2.00;99.90
52879;DHT22;38747;53.140;6.498;2022-12-18T17:01:19;-1.90;99.90
52879;DHT22;38747;53.140;6.498;2022-12-18T17:03:57;-1.90;99.90
52879;DHT22;38747;53.140;6.498;2022-12-18T17:06:25;-1.90;99.90
52879;DHT22;38747;53.140;6.498;2022-12-18T17:09:01;-1.90;99.90
52879;DHT22;38747;53.140;6.498;2022-12-18T17:11:29;-1.90;99.90
52879;DHT22;38747;53.140;6.498;2022-12-18T17:13:56;-1.90;99.90
52879;DHT22;38747;53.140;6.498;2022-12-18T17:16:22;-1.90;99.90
52879;DHT22;38747;53.140;6.498;2022-12-18T17:18:48;-1.90;99.90
52879;DHT22;38747;53.140;6.498;2022-12-18T17:21:14;-1.80;99.90
52879;DHT22;38747;53.140;6.498;2022-12-18T17:23:41;-1.90;99.90
52879;DHT22;38747;53.140;6.498;2022-12-18T17:26:08;-1.90;99.90
52879;DHT22;38747;53.140;6.498;2022-12-18T17:28:35;-1.80;99.90
52879;DHT22;38747;53.140;6.498;2022-12-18T17:31:27;-1.80;99.90
52879;DHT22;38747;53.140;6.498;2022-12-18T17:33:54;-1.80;99.90
52879;DHT22;38747;53.140;6.498;2022-12-18T17:36:20;-1.80;99.90